Time;durP1;ratioP1;P1;durP2;ratioP2;P2;SDS_P1;SDS_P2;PMS_P1;PMS_P2;Temp;Humidity;BMP_temperature;BMP_pressure;BME280_temperature;BME280_humidity;BME280_pressure;Samples;Min_cycle;Max_cycle;Signal;HPM_P1;HPM_P2
2022/07/24 00:00:47;;;;;;;;;;;;;;;30.63;35.91;100298.81;5398613;32;35272;-69
2022/07/24 00:03:49;;;;;;;;;;;;;;;30.48;36.30;100307.03;5430444;32;35153;-71
2022/07/24 00:06:51;;;;;;;;;;;;;;;29.29;38.69;100315.28;5401127;32;34356;-73
2022/07/24 00:09:53;;;;;;;;;;;;;;;29.63;38.21;100304.84;5440720;32;34208;-71
2022/07/24 00:12:55;;;;;;;;;;;;;;;29.44;38.55;100308.06;5419122;32;34975;-71
2022/07/24 00:15:57;;;;;;;;;;;;;;;29.16;38.98;100317.75;5441472;32;34419;-70
2022/07/24 00:18:58;;;;;;;;;;;;;;;29.77;37.58;100319.41;5417079;32;36005;-69
2022/07/24 00:22:02;;;;;;;;;;;;;;;29.48;38.27;100320.16;5411011;32;34886;-69
2022/07/24 00:25:04;;;;;;;;;;;;;;;29.63;38.05;100318.37;5434745;32;34447;-70
2022/07/24 00:28:06;;;;;;;;;;;;;;;29.55;38.40;100325.72;5416903;32;45007;-69
2022/07/24 00:31:09;;;;;;;;;;;;;;;29.44;38.71;100318.87;5415556;32;34799;-71
2022/07/24 00:34:11;;;;;;;;;;;;;;;29.42;38.83;100321.75;5406355;32;34447;-70
2022/07/24 00:37:13;;;;;;;;;;;;;;;29.28;39.38;100316.31;5419020;32;34769;-70
2022/07/24 00:40:15;;;;;;;;;;;;;;;29.06;39.89;100326.16;5412720;32;35018;-72
2022/07/24 00:43:17;;;;;;;;;;;;;;;29.22;39.60;100331.41;5403643;32;35437;-68
2022/07/24 00:46:19;;;;;;;;;;;;;;;28.73;40.82;100337.16;5428267;32;35496;-70
2022/07/24 00:49:22;;;;;;;;;;;;;;;29.40;39.42;100328.37;5407288;32;34896;-72
2022/07/24 00:52:27;;;;;;;;;;;;;;;28.97;39.96;100327.22;5420454;32;34574;-69
2022/07/24 00:55:29;;;;;;;;;;;;;;;29.07;39.74;100334.06;5419927;32;34798;-71
2022/07/24 00:58:31;;;;;;;;;;;;;;;28.97;39.96;100335.34;5420892;32;34999;-69
2022/07/24 01:01:33;;;;;;;;;;;;;;;28.43;41.16;100338.00;5408863;32;35057;-71
2022/07/24 01:04:35;;;;;;;;;;;;;;;28.17;41.92;100341.81;5423989;32;34541;-69
2022/07/24 01:07:37;;;;;;;;;;;;;;;29.09;40.04;100340.12;5406059;32;44965;-69
2022/07/24 01:10:39;;;;;;;;;;;;;;;29.18;39.87;100342.81;5412351;32;34471;-71
2022/07/24 01:13:41;;;;;;;;;;;;;;;28.19;42.20;100338.94;5407682;32;35270;-69
2022/07/24 01:16:43;;;;;;;;;;;;;;;28.72;40.92;100324.66;5424879;32;34775;-71
2022/07/24 01:19:44;;;;;;;;;;;;;;;28.53;41.22;100320.56;5428221;32;36812;-72
2022/07/24 01:22:47;;;;;;;;;;;;;;;28.07;42.16;100300.63;5417065;32;34870;-71
2022/07/24 01:25:49;;;;;;;;;;;;;;;28.09;42.40;100325.63;5421509;32;34275;-70
2022/07/24 01:28:52;;;;;;;;;;;;;;;27.95;42.30;100319.13;5434932;32;35304;-71
2022/07/24 01:31:54;;;;;;;;;;;;;;;27.99;42.11;100325.81;5402297;32;35093;-70
2022/07/24 01:34:56;;;;;;;;;;;;;;;27.81;42.40;100330.59;5442496;32;34710;-70
2022/07/24 01:37:58;;;;;;;;;;;;;;;27.39;42.37;100330.84;5414334;32;34651;-69
2022/07/24 01:41:00;;;;;;;;;;;;;;;27.44;41.93;100337.41;5413808;32;34879;-73
2022/07/24 01:44:02;;;;;;;;;;;;;;;27.61;41.75;100331.97;5409377;32;34789;-71
2022/07/24 01:47:04;;;;;;;;;;;;;;;27.23;42.53;100321.72;5429530;32;35067;-72
2022/07/24 01:50:06;;;;;;;;;;;;;;;27.54;41.75;100319.16;5440438;32;45594;-69
2022/07/24 01:53:08;;;;;;;;;;;;;;;27.15;42.61;100320.88;5424093;32;35923;-71
2022/07/24 01:56:10;;;;;;;;;;;;;;;27.94;40.93;100308.47;5438630;32;34371;-69
2022/07/24 01:59:11;;;;;;;;;;;;;;;27.48;41.75;100300.94;5386517;32;34448;-71
2022/07/24 02:02:15;;;;;;;;;;;;;;;27.41;41.98;100301.81;5433283;32;34919;-72
2022/07/24 02:05:17;;;;;;;;;;;;;;;26.78;43.30;100302.44;5402356;32;35286;-69
2022/07/24 02:08:22;;;;;;;;;;;;;;;27.78;41.03;100310.22;5425418;32;35317;-72
2022/07/24 02:11:24;;;;;;;;;;;;;;;27.64;41.24;100327.09;5425208;32;34894;-70
2022/07/24 02:14:25;;;;;;;;;;;;;;;28.31;39.74;100324.87;5415187;32;34698;-69
2022/07/24 02:17:27;;;;;;;;;;;;;;;28.18;39.97;100329.13;5429454;32;34877;-69
2022/07/24 02:20:29;;;;;;;;;;;;;;;27.20;41.96;100323.94;5414205;32;35740;-71
2022/07/24 02:23:31;;;;;;;;;;;;;;;27.87;40.77;100320.97;5419360;32;36087;-70
2022/07/24 02:26:33;;;;;;;;;;;;;;;27.11;42.27;100316.84;5421803;32;35173;-72
2022/07/24 02:29:35;;;;;;;;;;;;;;;27.88;40.74;100309.16;5407967;32;35707;-70
2022/07/24 02:32:37;;;;;;;;;;;;;;;26.82;43.19;100317.28;5447840;32;46929;-69
2022/07/24 02:35:39;;;;;;;;;;;;;;;27.57;41.64;100317.16;5417950;32;34597;-71
2022/07/24 02:38:41;;;;;;;;;;;;;;;27.50;41.75;100315.13;5440703;32;35010;-68
2022/07/24 02:41:43;;;;;;;;;;;;;;;28.49;39.52;100305.72;5422660;32;36266;-69
2022/07/24 02:44:44;;;;;;;;;;;;;;;28.72;38.96;100307.56;5436152;32;36373;-70
2022/07/24 02:47:54;;;;;;;;;;;;;;;28.49;39.65;100308.41;5430090;32;34979;-69
2022/07/24 02:50:56;;;;;;;;;;;;;;;28.17;40.13;100306.69;5422728;32;35432;-71
2022/07/24 02:53:58;;;;;;;;;;;;;;;27.79;41.10;100313.75;5429254;32;34434;-72
2022/07/24 02:56:59;;;;;;;;;;;;;;;27.33;42.07;100304.53;5416873;32;35458;-70
2022/07/24 03:00:06;;;;;;;;;;;;;;;27.06;42.73;100301.16;5416502;32;34817;-70
2022/07/24 03:03:08;;;;;;;;;;;;;;;27.34;42.33;100292.72;5418013;32;45415;-72
2022/07/24 03:06:10;;;;;;;;;;;;;;;27.96;41.23;100301.87;5414571;32;34534;-71
2022/07/24 03:09:12;;;;;;;;;;;;;;;28.22;40.40;100301.59;5444353;32;34995;-73
2022/07/24 03:12:14;;;;;;;;;;;;;;;28.43;39.79;100292.91;5398616;32;34554;-69
2022/07/24 03:15:15;;;;;;;;;;;;;;;28.20;40.42;100303.62;5436878;32;34810;-71
2022/07/24 03:18:17;;;;;;;;;;;;;;;27.34;42.42;100290.84;5422992;32;34683;-69
2022/07/24 03:21:23;;;;;;;;;;;;;;;27.50;42.07;100284.56;5427445;32;34243;-71
2022/07/24 03:24:45;;;;;;;;;;;;;;;26.37;44.63;100284.31;5417866;32;36814;-69
2022/07/24 03:27:47;;;;;;;;;;;;;;;26.80;43.76;100284.28;5413853;32;34775;-70
2022/07/24 03:30:49;;;;;;;;;;;;;;;27.81;41.45;100290.09;5431459;32;35526;-71
2022/07/24 03:33:51;;;;;;;;;;;;;;;27.18;42.67;100290.88;5390834;32;35039;-71
2022/07/24 03:36:53;;;;;;;;;;;;;;;27.16;42.94;100293.72;5440755;32;35350;-69
2022/07/24 03:39:55;;;;;;;;;;;;;;;27.41;42.39;100280.22;5415670;32;34866;-69
2022/07/24 03:42:57;;;;;;;;;;;;;;;27.46;42.13;100280.56;5427332;32;35091;-72
2022/07/24 03:45:59;;;;;;;;;;;;;;;27.03;43.44;100287.97;5418733;32;35334;-70
2022/07/24 03:49:01;;;;;;;;;;;;;;;26.97;43.69;100292.19;5432779;32;34815;-71
2022/07/24 03:52:04;;;;;;;;;;;;;;;27.19;43.15;100281.78;5437623;32;34686;-70
2022/07/24 03:55:07;;;;;;;;;;;;;;;27.40;42.61;100292.03;5427542;32;45767;-69
2022/07/24 03:58:09;;;;;;;;;;;;;;;27.69;42.14;100295.03;5437007;32;34467;-71
2022/07/24 04:01:11;;;;;;;;;;;;;;;27.27;43.14;100288.00;5401241;32;35832;-70
2022/07/24 04:04:13;;;;;;;;;;;;;;;27.31;43.12;100284.94;5440518;32;34697;-70
2022/07/24 04:07:15;;;;;;;;;;;;;;;27.79;41.86;100295.69;5425320;32;34256;-69
2022/07/24 04:10:17;;;;;;;;;;;;;;;27.15;43.29;100291.22;5412670;32;34634;-70
2022/07/24 04:13:19;;;;;;;;;;;;;;;27.13;43.45;100288.69;5442921;32;35535;-69
2022/07/24 04:16:21;;;;;;;;;;;;;;;26.35;45.25;100290.91;5412816;32;35052;-70
2022/07/24 04:19:23;;;;;;;;;;;;;;;27.41;42.84;100297.25;5415362;32;34999;-70
2022/07/24 04:22:25;;;;;;;;;;;;;;;27.05;43.83;100304.87;5427420;32;35603;-73
2022/07/24 04:25:27;;;;;;;;;;;;;;;26.45;45.23;100316.72;5403393;32;35187;-71
2022/07/24 04:28:29;;;;;;;;;;;;;;;27.22;43.74;100305.72;5426016;32;35364;-69
2022/07/24 04:31:31;;;;;;;;;;;;;;;27.36;43.43;100312.28;5401656;32;34865;-71
2022/07/24 04:34:34;;;;;;;;;;;;;;;26.18;46.48;100316.94;5444780;32;34837;-69
2022/07/24 04:37:36;;;;;;;;;;;;;;;26.96;44.69;100324.72;5403484;32;44611;-71
2022/07/24 04:40:38;;;;;;;;;;;;;;;26.81;45.38;100331.78;5427733;32;37338;-71
2022/07/24 04:43:40;;;;;;;;;;;;;;;26.23;46.82;100338.84;5401962;32;35706;-70
2022/07/24 04:46:42;;;;;;;;;;;;;;;26.33;46.67;100331.44;5410411;32;34715;-72
2022/07/24 04:49:44;;;;;;;;;;;;;;;27.49;44.11;100345.81;5436929;32;34994;-70
2022/07/24 04:52:46;;;;;;;;;;;;;;;27.23;44.67;100355.94;5416110;32;34920;-70
2022/07/24 04:55:47;;;;;;;;;;;;;;;27.33;44.46;100348.53;5428404;32;35216;-67
2022/07/24 04:58:49;;;;;;;;;;;;;;;27.58;43.97;100353.94;5408596;32;35073;-70
2022/07/24 05:01:51;;;;;;;;;;;;;;;27.62;43.97;100363.34;5415657;32;34736;-70
2022/07/24 05:04:53;;;;;;;;;;;;;;;27.58;44.44;100372.81;5408460;32;35077;-71
2022/07/24 05:07:55;;;;;;;;;;;;;;;28.10;43.12;100364.31;5427891;32;34714;-70
2022/07/24 05:10:57;;;;;;;;;;;;;;;27.34;45.07;100366.41;5426312;32;35177;-70
2022/07/24 05:13:58;;;;;;;;;;;;;;;27.46;44.76;100383.97;5412831;32;35992;-71
2022/07/24 05:17:00;;;;;;;;;;;;;;;27.54;44.67;100386.66;5428471;32;35657;-69
2022/07/24 05:20:03;;;;;;;;;;;;;;;26.60;47.23;100383.44;5414501;32;35310;-69
2022/07/24 05:23:05;;;;;;;;;;;;;;;26.58;47.26;100374.69;5415124;32;44866;-73
2022/07/24 05:26:07;;;;;;;;;;;;;;;27.02;46.36;100387.94;5409451;32;44609;-69
2022/07/24 05:29:09;;;;;;;;;;;;;;;26.68;47.24;100386.19;5425891;32;35331;-69
2022/07/24 05:32:11;;;;;;;;;;;;;;;28.46;42.93;100389.84;5425333;32;34848;-71
2022/07/24 05:35:12;;;;;;;;;;;;;;;28.18;43.38;100391.28;5416844;32;34797;-69
2022/07/24 05:38:15;;;;;;;;;;;;;;;27.73;44.45;100398.12;5441397;32;36074;-71
2022/07/24 05:41:17;;;;;;;;;;;;;;;28.09;43.70;100397.75;5417194;32;34722;-69
2022/07/24 05:44:19;;;;;;;;;;;;;;;28.03;44.00;100399.28;5446319;32;34907;-70
2022/07/24 05:47:20;;;;;;;;;;;;;;;26.41;48.00;100415.06;5414480;32;35512;-71
2022/07/24 05:50:22;;;;;;;;;;;;;;;26.32;48.46;100418.69;5419188;32;35255;-69
2022/07/24 05:53:24;;;;;;;;;;;;;;;26.85;47.24;100409.47;5442340;32;34651;-72
2022/07/24 05:56:26;;;;;;;;;;;;;;;27.11;46.77;100405.84;5419561;32;34627;-71
2022/07/24 05:59:28;;;;;;;;;;;;;;;27.68;45.14;100411.25;5406704;32;35315;-70
2022/07/24 06:02:30;;;;;;;;;;;;;;;28.92;42.20;100398.09;5425342;32;34103;-71
2022/07/24 06:05:32;;;;;;;;;;;;;;;30.33;39.16;100406.50;5443968;32;34080;-70
2022/07/24 06:08:34;;;;;;;;;;;;;;;30.15;39.33;100409.63;5413290;32;34922;-70
2022/07/24 06:11:36;;;;;;;;;;;;;;;30.18;38.52;100411.94;5430047;32;45021;-69
2022/07/24 06:14:38;;;;;;;;;;;;;;;30.69;37.86;100413.91;5440447;32;34655;-70
2022/07/24 06:17:40;;;;;;;;;;;;;;;29.94;38.83;100417.59;5414918;32;34946;-70
2022/07/24 06:20:41;;;;;;;;;;;;;;;31.40;36.24;100414.06;5430834;32;34705;-73
2022/07/24 06:23:43;;;;;;;;;;;;;;;30.61;38.07;100425.66;5408465;32;34930;-72
2022/07/24 06:26:45;;;;;;;;;;;;;;;30.91;37.31;100418.31;5440496;32;35145;-71
2022/07/24 06:30:11;;;;;;;;;;;;;;;29.75;39.79;100424.38;5424322;32;45031;-69
2022/07/24 06:33:13;;;;;;;;;;;;;;;30.63;37.73;100423.59;5397725;32;36371;-72
2022/07/24 06:36:15;;;;;;;;;;;;;;;30.79;37.48;100422.59;5419867;32;34419;-73
2022/07/24 06:39:17;;;;;;;;;;;;;;;30.50;37.96;100428.84;5415179;32;34204;-69
2022/07/24 06:42:19;;;;;;;;;;;;;;;31.46;35.96;100429.56;5433123;32;34378;-70
2022/07/24 06:45:21;;;;;;;;;;;;;;;31.49;35.57;100424.59;5419793;32;34686;-70
2022/07/24 06:48:24;;;;;;;;;;;;;;;31.38;36.05;100429.72;5417378;32;34956;-71
2022/07/24 06:51:26;;;;;;;;;;;;;;;31.36;36.63;100431.75;5417193;32;35144;-70
2022/07/24 06:54:28;;;;;;;;;;;;;;;32.73;33.88;100427.56;5413824;32;35242;-74
2022/07/24 06:57:30;;;;;;;;;;;;;;;32.77;33.86;100433.41;5440278;32;35086;-69
2022/07/24 07:00:32;;;;;;;;;;;;;;;32.42;34.90;100430.75;5385721;32;34607;-71
2022/07/24 07:03:34;;;;;;;;;;;;;;;32.75;34.34;100430.06;5436893;32;34641;-69
2022/07/24 07:06:36;;;;;;;;;;;;;;;32.63;34.71;100435.25;5401994;32;45454;-71
2022/07/24 07:09:44;;;;;;;;;;;;;;;33.87;32.00;100435.72;5424400;32;34302;-72
2022/07/24 07:12:46;;;;;;;;;;;;;;;32.98;33.31;100440.66;5421702;32;34785;-71
2022/07/24 07:15:48;;;;;;;;;;;;;;;33.23;32.39;100436.28;5399462;32;34912;-71
2022/07/24 07:18:50;;;;;;;;;;;;;;;32.69;33.57;100437.16;5428717;32;34915;-69
2022/07/24 07:21:52;;;;;;;;;;;;;;;33.56;31.85;100438.28;5415602;32;34831;-69
2022/07/24 07:24:54;;;;;;;;;;;;;;;32.99;31.99;100443.16;5420045;32;36340;-72
2022/07/24 07:27:55;;;;;;;;;;;;;;;33.28;31.83;100435.69;5395130;32;959347;-72
2022/07/24 07:30:58;;;;;;;;;;;;;;;33.09;32.27;100445.47;5418429;32;34581;-73
2022/07/24 07:33:59;;;;;;;;;;;;;;;32.83;32.44;100444.31;5422245;32;35430;-72
2022/07/24 07:37:01;;;;;;;;;;;;;;;33.56;31.18;100439.09;5416399;32;34459;-69
2022/07/24 07:40:04;;;;;;;;;;;;;;;35.01;28.15;100437.13;5408325;32;35531;-70
2022/07/24 07:43:06;;;;;;;;;;;;;;;33.64;30.09;100443.50;5420205;32;44545;-71
2022/07/24 07:46:07;;;;;;;;;;;;;;;33.42;29.99;100440.13;5424596;32;35245;-70
2022/07/24 07:49:09;;;;;;;;;;;;;;;34.46;28.88;100445.75;5412412;32;35152;-70
2022/07/24 07:52:11;;;;;;;;;;;;;;;34.85;27.98;100449.38;5405831;32;34721;-71
2022/07/24 07:55:13;;;;;;;;;;;;;;;33.06;30.42;100441.28;5428066;32;35453;-69
2022/07/24 07:58:16;;;;;;;;;;;;;;;35.72;26.77;100433.31;5403319;32;35938;-72
2022/07/24 08:01:18;;;;;;;;;;;;;;;33.50;29.34;100439.09;5408122;32;34843;-70
2022/07/24 08:04:20;;;;;;;;;;;;;;;34.30;27.91;100440.72;5412889;32;34903;-73
2022/07/24 08:07:22;;;;;;;;;;;;;;;34.07;28.11;100441.22;5428878;32;36175;-72
2022/07/24 08:10:26;;;;;;;;;;;;;;;34.97;26.03;100433.16;5405604;32;34836;-71
2022/07/24 08:13:28;;;;;;;;;;;;;;;35.13;25.76;100434.56;5427272;32;34383;-70
2022/07/24 08:16:30;;;;;;;;;;;;;;;34.80;26.14;100438.28;5427422;32;34781;-71
2022/07/24 08:19:32;;;;;;;;;;;;;;;33.81;27.57;100417.47;5426951;32;35026;-70
2022/07/24 08:22:34;;;;;;;;;;;;;;;35.36;25.59;100436.69;5416167;32;34853;-70
2022/07/24 08:25:36;;;;;;;;;;;;;;;33.83;27.59;100445.38;5403349;32;44673;-70
2022/07/24 08:28:38;;;;;;;;;;;;;;;33.66;26.84;100444.13;5445220;32;34615;-72
2022/07/24 08:31:40;;;;;;;;;;;;;;;32.57;28.97;100445.03;5404286;32;34708;-71
2022/07/24 08:34:42;;;;;;;;;;;;;;;31.99;30.10;100452.62;5431041;32;35021;-71
2022/07/24 08:37:44;;;;;;;;;;;;;;;32.12;29.59;100460.03;5413885;32;36949;-70
2022/07/24 08:40:46;;;;;;;;;;;;;;;31.04;31.84;100461.06;5406554;32;35356;-68
2022/07/24 08:43:48;;;;;;;;;;;;;;;31.87;30.71;100459.62;5432345;32;35074;-71
2022/07/24 08:46:50;;;;;;;;;;;;;;;32.16;30.15;100460.47;5425341;32;35077;-70
2022/07/24 08:49:53;;;;;;;;;;;;;;;32.47;29.49;100454.63;5427426;32;34329;-72
2022/07/24 08:52:56;;;;;;;;;;;;;;;33.04;28.65;100462.44;5416231;32;35010;-70
2022/07/24 08:55:58;;;;;;;;;;;;;;;32.37;29.60;100454.16;5427297;32;35098;-70
2022/07/24 08:59:00;;;;;;;;;;;;;;;32.26;29.04;100456.34;5426085;32;34878;-70
2022/07/24 09:02:02;;;;;;;;;;;;;;;32.51;28.79;100466.78;5403754;32;34469;-70
2022/07/24 09:05:05;;;;;;;;;;;;;;;33.21;27.77;100471.06;5429872;32;34966;-70
2022/07/24 09:08:11;;;;;;;;;;;;;;;33.52;26.92;100464.25;5411497;32;42690;-70
2022/07/24 09:11:13;;;;;;;;;;;;;;;32.50;27.81;100459.66;5427642;32;34742;-70
2022/07/24 09:14:29;;;;;;;;;;;;;;;32.44;27.44;100466.75;5402040;32;34931;-70
2022/07/24 09:17:31;;;;;;;;;;;;;;;32.74;27.02;100471.94;5400226;32;34866;-75
2022/07/24 09:20:37;;;;;;;;;;;;;;;32.11;27.80;100474.66;5416666;32;34725;-69
2022/07/24 09:23:39;;;;;;;;;;;;;;;32.21;27.87;100477.03;5414353;32;45033;-72
2022/07/24 09:26:45;;;;;;;;;;;;;;;31.31;29.35;100474.97;5433425;32;34789;-70
2022/07/24 09:29:47;;;;;;;;;;;;;;;32.26;27.76;100478.09;5429177;32;34778;-70
2022/07/24 09:32:53;;;;;;;;;;;;;;;32.30;27.51;100454.09;5440633;32;34989;-70
2022/07/24 09:35:55;;;;;;;;;;;;;;;31.87;28.17;100480.53;5405188;32;34386;-71
2022/07/24 09:38:59;;;;;;;;;;;;;;;33.99;25.28;100476.03;5423203;32;35748;-70
2022/07/24 09:42:01;;;;;;;;;;;;;;;34.62;24.26;100477.19;5420804;32;34687;-75
2022/07/24 09:45:08;;;;;;;;;;;;;;;34.83;23.81;100489.69;5438752;32;34271;-73
2022/07/24 09:48:10;;;;;;;;;;;;;;;33.99;25.50;100485.03;5438254;32;45283;-72
2022/07/24 09:51:14;;;;;;;;;;;;;;;33.01;27.36;100494.69;5414708;32;34888;-70
2022/07/24 09:54:17;;;;;;;;;;;;;;;33.00;27.37;100487.56;5436837;32;34459;-71
2022/07/24 09:57:22;;;;;;;;;;;;;;;32.83;27.66;100482.41;5432033;32;34684;-73
2022/07/24 10:00:24;;;;;;;;;;;;;;;33.59;26.65;100481.44;5401681;32;34907;-69
2022/07/24 10:03:31;;;;;;;;;;;;;;;33.63;25.75;100482.72;5420921;32;35198;-69
2022/07/24 10:06:35;;;;;;;;;;;;;;;33.75;25.60;100478.31;5401004;32;34241;-69
2022/07/24 10:09:38;;;;;;;;;;;;;;;33.33;26.06;100482.19;5426880;32;46247;-73
2022/07/24 10:12:40;;;;;;;;;;;;;;;33.35;25.62;100467.31;5403549;32;35074;-72
2022/07/24 10:15:51;;;;;;;;;;;;;;;33.86;25.24;100474.94;5421946;32;35072;-73
2022/07/24 10:18:53;;;;;;;;;;;;;;;33.81;25.37;100474.72;5439219;32;35313;-71
2022/07/24 10:21:55;;;;;;;;;;;;;;;34.13;24.65;100466.78;5412868;32;34433;-70
2022/07/24 10:25:08;;;;;;;;;;;;;;;33.77;25.01;100478.09;5434095;32;35559;-72
2022/07/24 10:28:10;;;;;;;;;;;;;;;34.22;23.38;100479.16;5406397;32;44717;-72
2022/07/24 10:31:13;;;;;;;;;;;;;;;34.05;22.99;100475.19;5407520;32;35337;-71
2022/07/24 10:34:15;;;;;;;;;;;;;;;33.09;24.90;100478.16;5431761;32;34871;-71
2022/07/24 10:37:23;;;;;;;;;;;;;;;33.84;24.00;100482.50;5416529;32;35673;-70
2022/07/24 10:40:31;;;;;;;;;;;;;;;34.68;22.79;100483.69;5437232;32;34708;-71
2022/07/24 10:43:33;;;;;;;;;;;;;;;33.02;24.32;100480.84;5414860;32;34764;-73
2022/07/24 10:46:55;;;;;;;;;;;;;;;33.27;24.12;100488.47;5412590;32;44557;-73
2022/07/24 10:49:57;;;;;;;;;;;;;;;33.15;24.45;100478.16;5404156;32;35221;-71
2022/07/24 10:53:19;;;;;;;;;;;;;;;33.40;23.78;100483.09;5412932;32;34611;-70
2022/07/24 10:56:25;;;;;;;;;;;;;;;32.66;23.29;100481.09;5431933;32;34608;-72
2022/07/24 10:59:34;;;;;;;;;;;;;;;33.85;22.42;100481.44;5401204;32;35016;-70
2022/07/24 11:02:39;;;;;;;;;;;;;;;32.84;24.77;100473.22;5439808;32;47212;-72
2022/07/24 11:05:41;;;;;;;;;;;;;;;33.46;24.34;100476.81;5399975;32;35090;-72
2022/07/24 11:08:49;;;;;;;;;;;;;;;33.25;23.54;100471.50;5431011;32;34909;-72
2022/07/24 11:11:51;;;;;;;;;;;;;;;33.54;23.30;100462.16;5432445;32;34292;-72
2022/07/24 11:15:53;;;;;;;;;;;;;;;33.91;23.54;100467.00;5412552;32;34732;-73
2022/07/24 11:18:17;;;;;;;;;;;;;;;34.29;23.32;100470.97;5416575;32;35051;-73
2022/07/24 11:21:29;;;;;;;;;;;;;;;34.11;23.35;100463.44;5399873;32;35436;-72
2022/07/24 11:24:31;;;;;;;;;;;;;;;35.09;22.14;100455.16;5402733;32;34871;-70
2022/07/24 11:27:47;;;;;;;;;;;;;;;34.51;22.01;100445.09;5426371;32;35414;-72
2022/07/24 11:30:49;;;;;;;;;;;;;;;32.57;24.23;100453.22;5412464;32;34950;-70
2022/07/24 11:33:51;;;;;;;;;;;;;;;32.75;24.08;100446.38;5448268;32;35087;-72
2022/07/24 11:36:54;;;;;;;;;;;;;;;34.75;21.82;100447.09;5399582;32;35909;-71
2022/07/24 11:39:55;;;;;;;;;;;;;;;36.25;19.54;100439.12;5412119;32;34317;-73
2022/07/24 11:43:02;;;;;;;;;;;;;;;36.13;19.28;100440.09;5424323;32;35265;-72
2022/07/24 11:46:11;;;;;;;;;;;;;;;38.26;17.19;100436.03;5410389;32;44022;-73
2022/07/24 11:49:14;;;;;;;;;;;;;;;37.98;15.81;100426.59;5415721;32;37122;-71
2022/07/24 11:52:18;;;;;;;;;;;;;;;37.61;15.93;100428.69;5422678;32;35305;-71
2022/07/24 11:55:21;;;;;;;;;;;;;;;38.05;16.39;100421.00;5433364;32;35487;-71
2022/07/24 11:58:23;;;;;;;;;;;;;;;39.30;15.20;100423.06;5406439;32;34571;-72
2022/07/24 12:01:40;;;;;;;;;;;;;;;38.34;15.71;100414.56;5410193;32;45027;-71
2022/07/24 12:04:43;;;;;;;;;;;;;;;39.60;15.02;100406.25;5424816;32;34695;-71
2022/07/24 12:07:45;;;;;;;;;;;;;;;38.13;16.42;100418.72;5406225;32;33315;-73
2022/07/24 12:10:50;;;;;;;;;;;;;;;39.42;14.59;100417.50;5437393;32;34451;-72
2022/07/24 12:13:52;;;;;;;;;;;;;;;39.25;14.16;100411.97;5400581;32;34844;-72
2022/07/24 12:16:54;;;;;;;;;;;;;;;38.47;14.59;100407.97;5430102;32;34824;-71
2022/07/24 12:19:57;;;;;;;;;;;;;;;39.64;13.93;100406.59;5401784;32;34444;-72
2022/07/24 12:23:00;;;;;;;;;;;;;;;39.02;15.13;100399.16;5425347;32;35468;-72
2022/07/24 12:26:02;;;;;;;;;;;;;;;36.81;17.13;100401.62;5424059;32;35655;-71
2022/07/24 12:29:08;;;;;;;;;;;;;;;37.44;16.71;100405.81;5413328;32;35141;-72
2022/07/24 12:32:17;;;;;;;;;;;;;;;36.72;17.02;100400.28;5443857;32;44501;-72
2022/07/24 12:35:19;;;;;;;;;;;;;;;35.82;18.32;100395.38;5425960;32;35577;-71
2022/07/24 12:38:55;;;;;;;;;;;;;;;35.46;19.19;100407.03;5417085;32;34814;-71
2022/07/24 12:42:02;;;;;;;;;;;;;;;35.12;18.99;100406.41;5416614;32;35113;-73
2022/07/24 12:45:05;;;;;;;;;;;;;;;34.42;19.91;100408.19;5426737;32;34149;-73
2022/07/24 12:48:16;;;;;;;;;;;;;;;35.40;18.84;100386.84;5431728;32;44444;-72
2022/07/24 12:51:18;;;;;;;;;;;;;;;35.49;18.57;100391.03;5415885;32;35740;-72
2022/07/24 12:54:23;;;;;;;;;;;;;;;34.80;19.45;100396.50;5435327;32;35060;-71
2022/07/24 12:57:25;;;;;;;;;;;;;;;33.38;20.62;100397.97;5432460;32;35552;-72
2022/07/24 13:00:31;;;;;;;;;;;;;;;33.83;19.55;100392.75;5399105;32;34374;-70
2022/07/24 13:03:35;;;;;;;;;;;;;;;33.92;18.85;100402.41;5434981;32;34631;-72
2022/07/24 13:06:41;;;;;;;;;;;;;;;33.78;18.20;100398.84;5405397;32;46263;-72
2022/07/24 13:09:43;;;;;;;;;;;;;;;33.65;18.02;100394.25;5440608;32;34744;-71
2022/07/24 13:12:45;;;;;;;;;;;;;;;34.15;17.59;100385.59;5416671;32;34717;-73
2022/07/24 13:15:46;;;;;;;;;;;;;;;33.81;17.35;100390.22;5427423;32;36051;-71
2022/07/24 13:18:50;;;;;;;;;;;;;;;33.46;17.36;100377.91;5411198;32;34901;-72
2022/07/24 13:21:52;;;;;;;;;;;;;;;33.63;16.68;100381.88;5420799;32;34038;-72
2022/07/24 13:24:54;;;;;;;;;;;;;;;33.85;16.69;100377.03;5436182;32;35347;-72
2022/07/24 13:27:56;;;;;;;;;;;;;;;33.08;17.34;100376.56;5417208;32;34994;-70
2022/07/24 13:31:14;;;;;;;;;;;;;;;33.83;16.87;100369.06;5422546;32;44744;-72
2022/07/24 13:34:16;;;;;;;;;;;;;;;34.62;16.41;100367.19;5417295;32;35580;-70
2022/07/24 13:37:18;;;;;;;;;;;;;;;33.37;17.90;100369.91;5405837;32;33473;-70
2022/07/24 13:40:21;;;;;;;;;;;;;;;33.88;17.79;100366.53;5418640;32;35384;-70
2022/07/24 13:43:23;;;;;;;;;;;;;;;33.81;18.24;100360.25;5414561;32;34938;-71
2022/07/24 13:46:25;;;;;;;;;;;;;;;33.54;17.05;100369.50;5428083;32;36715;-71
2022/07/24 13:49:27;;;;;;;;;;;;;;;34.07;16.39;100358.53;5401809;32;34879;-70
2022/07/24 13:52:29;;;;;;;;;;;;;;;33.21;17.84;100353.97;5436869;32;35105;-71
2022/07/24 13:55:31;;;;;;;;;;;;;;;33.01;18.03;100353.13;5426313;32;34936;-70
2022/07/24 13:58:35;;;;;;;;;;;;;;;33.65;17.68;100356.09;5413719;32;34215;-71
2022/07/24 14:01:37;;;;;;;;;;;;;;;33.28;18.52;100338.47;5405459;32;45248;-70
2022/07/24 14:04:40;;;;;;;;;;;;;;;33.73;18.36;100340.56;5428440;32;34622;-69
2022/07/24 14:07:41;;;;;;;;;;;;;;;33.98;18.31;100344.31;5407891;32;35954;-71
2022/07/24 14:10:43;;;;;;;;;;;;;;;33.70;18.26;100341.84;5423854;32;34427;-75
2022/07/24 14:13:45;;;;;;;;;;;;;;;33.74;18.46;100332.16;5440284;32;34106;-70
2022/07/24 14:16:47;;;;;;;;;;;;;;;33.30;18.93;100335.56;5427806;32;34438;-71
2022/07/24 14:19:49;;;;;;;;;;;;;;;33.03;19.18;100329.22;5413146;32;35407;-71
2022/07/24 14:22:51;;;;;;;;;;;;;;;33.72;18.47;100328.00;5427029;32;35453;-71
2022/07/24 14:25:53;;;;;;;;;;;;;;;33.75;18.45;100322.97;5405224;32;34708;-73
2022/07/24 14:28:55;;;;;;;;;;;;;;;33.32;18.73;100322.56;5448624;32;34841;-72
2022/07/24 14:31:57;;;;;;;;;;;;;;;33.70;18.20;100324.66;5427602;32;34895;-72
2022/07/24 14:34:59;;;;;;;;;;;;;;;33.93;17.97;100320.41;5420105;32;35420;-71
2022/07/24 14:38:01;;;;;;;;;;;;;;;33.67;18.52;100310.38;5425564;32;35791;-72
2022/07/24 14:41:03;;;;;;;;;;;;;;;33.26;19.16;100312.50;5411664;32;34595;-71
2022/07/24 14:44:05;;;;;;;;;;;;;;;33.16;19.12;100315.63;5431244;32;44790;-73
2022/07/24 14:47:10;;;;;;;;;;;;;;;33.31;18.90;100310.00;5389175;32;44320;-71
2022/07/24 14:50:12;;;;;;;;;;;;;;;33.92;18.28;100312.44;5430812;32;35690;-71
2022/07/24 14:53:14;;;;;;;;;;;;;;;33.84;18.28;100309.94;5383524;32;33981;-73
2022/07/24 14:56:16;;;;;;;;;;;;;;;33.87;17.95;100313.06;5429079;32;34334;-71
2022/07/24 14:59:20;;;;;;;;;;;;;;;33.01;18.83;100298.66;5414998;32;35458;-74
2022/07/24 15:02:22;;;;;;;;;;;;;;;33.54;18.31;100298.66;5389913;32;34638;-70
2022/07/24 15:05:24;;;;;;;;;;;;;;;33.48;18.27;100302.25;5419336;32;35042;-72
2022/07/24 15:08:26;;;;;;;;;;;;;;;34.11;17.28;100297.09;5414112;32;35016;-71
2022/07/24 15:11:28;;;;;;;;;;;;;;;33.78;17.72;100295.28;5434142;32;34758;-70
2022/07/24 15:14:30;;;;;;;;;;;;;;;33.62;18.18;100298.44;5415573;32;35203;-71
2022/07/24 15:17:32;;;;;;;;;;;;;;;33.65;17.93;100295.31;5407476;32;34649;-70
2022/07/24 15:20:34;;;;;;;;;;;;;;;32.85;18.76;100300.72;5427539;32;34920;-73
2022/07/24 15:23:36;;;;;;;;;;;;;;;33.69;18.03;100296.56;5415932;32;44509;-73
2022/07/24 15:26:38;;;;;;;;;;;;;;;34.00;17.65;100295.84;5425928;32;34971;-72
2022/07/24 15:29:40;;;;;;;;;;;;;;;33.02;18.68;100290.28;5414918;32;35033;-72
2022/07/24 15:32:42;;;;;;;;;;;;;;;33.14;18.38;100277.72;5426650;32;35394;-71
2022/07/24 15:35:44;;;;;;;;;;;;;;;33.52;17.76;100287.16;5399236;32;34300;-71
2022/07/24 15:38:46;;;;;;;;;;;;;;;33.10;18.20;100283.78;5415331;32;34454;-70